sensor_id;sensor_type;location;lat;lon;timestamp;pressure;altitude;pressure_sealevel;temperature;humidity
11339;BME280;5724;42.684;23.252;2023-05-08T00:01:14;94515.66;;;12.16;79.00
11339;BME280;5724;42.684;23.252;2023-05-08T00:03:41;94523.44;;;12.14;79.50
11339;BME280;5724;42.684;23.252;2023-05-08T00:06:06;94516.66;;;12.27;79.41
11339;BME280;5724;42.684;23.252;2023-05-08T00:08:32;94523.91;;;12.39;79.03
11339;BME280;5724;42.684;23.252;2023-05-08T00:10:57;94527.25;;;12.51;78.05
11339;BME280;5724;42.684;23.252;2023-05-08T00:13:23;94518.66;;;12.30;78.84
11339;BME280;5724;42.684;23.252;2023-05-08T00:15:48;94527.66;;;12.30;79.26
11339;BME280;5724;42.684;23.252;2023-05-08T00:18:14;94527.00;;;12.37;78.56
11339;BME280;5724;42.684;23.252;2023-05-08T00:20:39;94529.19;;;12.28;78.92
11339;BME280;5724;42.684;23.252;2023-05-08T00:23:06;94532.31;;;12.26;78.82
11339;BME280;5724;42.684;23.252;2023-05-08T00:25:31;94531.63;;;12.33;78.25
11339;BME280;5724;42.684;23.252;2023-05-08T00:27:58;94540.22;;;12.31;78.24
11339;BME280;5724;42.684;23.252;2023-05-08T00:30:23;94533.69;;;12.17;78.93
11339;BME280;5724;42.684;23.252;2023-05-08T00:32:48;94534.41;;;12.14;79.75
11339;BME280;5724;42.684;23.252;2023-05-08T00:35:14;94535.38;;;12.02;79.41
11339;BME280;5724;42.684;23.252;2023-05-08T00:37:40;94532.13;;;11.96;79.47
11339;BME280;5724;42.684;23.252;2023-05-08T00:40:07;94535.16;;;12.11;79.54
11339;BME280;5724;42.684;23.252;2023-05-08T00:42:33;94522.25;;;12.11;79.00
11339;BME280;5724;42.684;23.252;2023-05-08T00:44:58;94534.72;;;12.09;78.90
11339;BME280;5724;42.684;23.252;2023-05-08T00:47:24;94538.06;;;11.98;79.51
11339;BME280;5724;42.684;23.252;2023-05-08T00:49:49;94534.88;;;11.96;80.12
11339;BME280;5724;42.684;23.252;2023-05-08T00:52:15;94535.88;;;12.08;79.25
11339;BME280;5724;42.684;23.252;2023-05-08T00:54:43;94531.97;;;12.09;79.92
11339;BME280;5724;42.684;23.252;2023-05-08T00:57:09;94543.00;;;12.12;80.31
11339;BME280;5724;42.684;23.252;2023-05-08T00:59:35;94540.72;;;11.95;79.58
11339;BME280;5724;42.684;23.252;2023-05-08T01:02:01;94541.59;;;11.99;79.95
11339;BME280;5724;42.684;23.252;2023-05-08T01:04:29;94550.03;;;11.90;80.66
11339;BME280;5724;42.684;23.252;2023-05-08T01:06:54;94548.44;;;11.89;79.54
11339;BME280;5724;42.684;23.252;2023-05-08T01:09:20;94544.22;;;11.95;79.52
11339;BME280;5724;42.684;23.252;2023-05-08T01:12:23;94547.16;;;12.06;79.55
11339;BME280;5724;42.684;23.252;2023-05-08T01:15:12;94554.34;;;11.91;80.44
11339;BME280;5724;42.684;23.252;2023-05-08T01:23:20;94555.50;;;11.90;81.16
11339;BME280;5724;42.684;23.252;2023-05-08T01:34:32;94532.00;;;11.89;81.44
11339;BME280;5724;42.684;23.252;2023-05-08T01:37:09;94549.09;;;11.83;81.02
11339;BME280;5724;42.684;23.252;2023-05-08T01:39:42;94536.75;;;11.92;80.42
11339;BME280;5724;42.684;23.252;2023-05-08T01:44:56;94535.03;;;11.84;81.59
11339;BME280;5724;42.684;23.252;2023-05-08T01:47:27;94518.88;;;11.79;79.57
11339;BME280;5724;42.684;23.252;2023-05-08T01:50:06;94530.72;;;11.83;80.51
11339;BME280;5724;42.684;23.252;2023-05-08T01:52:50;94529.19;;;11.86;80.84
11339;BME280;5724;42.684;23.252;2023-05-08T01:55:20;94539.53;;;11.76;80.38
11339;BME280;5724;42.684;23.252;2023-05-08T01:57:52;94534.66;;;11.86;80.34
11339;BME280;5724;42.684;23.252;2023-05-08T02:00:20;94531.66;;;11.91;80.00
11339;BME280;5724;42.684;23.252;2023-05-08T02:02:47;94536.34;;;11.90;78.57
11339;BME280;5724;42.684;23.252;2023-05-08T02:05:14;94540.13;;;11.86;78.17
11339;BME280;5724;42.684;23.252;2023-05-08T02:07:41;94533.97;;;11.89;78.93
11339;BME280;5724;42.684;23.252;2023-05-08T02:10:09;94539.34;;;11.85;78.58
11339;BME280;5724;42.684;23.252;2023-05-08T02:12:37;94533.59;;;11.90;79.47
11339;BME280;5724;42.684;23.252;2023-05-08T02:15:04;94539.81;;;11.87;78.83
11339;BME280;5724;42.684;23.252;2023-05-08T02:17:32;94541.06;;;11.74;78.82
11339;BME280;5724;42.684;23.252;2023-05-08T02:19:59;94542.16;;;11.69;78.95
11339;BME280;5724;42.684;23.252;2023-05-08T02:22:26;94535.22;;;11.75;78.72
11339;BME280;5724;42.684;23.252;2023-05-08T02:24:53;94546.63;;;11.78;78.89
11339;BME280;5724;42.684;23.252;2023-05-08T02:27:21;94539.19;;;11.78;78.84
11339;BME280;5724;42.684;23.252;2023-05-08T02:29:50;94545.38;;;11.75;78.88
11339;BME280;5724;42.684;23.252;2023-05-08T02:32:17;94539.72;;;11.84;78.62
11339;BME280;5724;42.684;23.252;2023-05-08T02:34:44;94545.63;;;11.86;79.00
11339;BME280;5724;42.684;23.252;2023-05-08T02:37:11;94546.41;;;11.86;79.47
11339;BME280;5724;42.684;23.252;2023-05-08T02:39:38;94545.13;;;11.80;80.44
11339;BME280;5724;42.684;23.252;2023-05-08T02:42:03;94554.56;;;11.83;79.11
11339;BME280;5724;42.684;23.252;2023-05-08T02:44:29;94556.84;;;11.61;79.55
11339;BME280;5724;42.684;23.252;2023-05-08T02:46:57;94559.94;;;11.60;79.80
11339;BME280;5724;42.684;23.252;2023-05-08T02:52:24;94553.00;;;11.46;79.88
11339;BME280;5724;42.684;23.252;2023-05-08T02:55:03;94550.84;;;11.36;80.79
11339;BME280;5724;42.684;23.252;2023-05-08T03:00:17;94550.84;;;11.36;81.30
11339;BME280;5724;42.684;23.252;2023-05-08T03:03:25;94548.41;;;11.31;81.21
11339;BME280;5724;42.684;23.252;2023-05-08T03:05:56;94548.53;;;11.38;81.36
11339;BME280;5724;42.684;23.252;2023-05-08T03:08:29;94552.59;;;11.44;81.54
11339;BME280;5724;42.684;23.252;2023-05-08T03:11:00;94545.25;;;11.49;81.82
11339;BME280;5724;42.684;23.252;2023-05-08T03:13:30;94550.44;;;11.54;81.53
11339;BME280;5724;42.684;23.252;2023-05-08T03:15:59;94547.47;;;11.43;83.75
11339;BME280;5724;42.684;23.252;2023-05-08T03:18:30;94548.41;;;11.31;84.10
11339;BME280;5724;42.684;23.252;2023-05-08T03:20:58;94549.94;;;11.13;85.41
11339;BME280;5724;42.684;23.252;2023-05-08T03:23:26;94561.25;;;11.11;86.02
11339;BME280;5724;42.684;23.252;2023-05-08T03:25:52;94552.59;;;11.09;85.71
11339;BME280;5724;42.684;23.252;2023-05-08T03:28:19;94552.88;;;11.04;85.48
11339;BME280;5724;42.684;23.252;2023-05-08T03:30:47;94553.13;;;10.99;87.14
11339;BME280;5724;42.684;23.252;2023-05-08T03:33:14;94558.97;;;10.98;86.08
11339;BME280;5724;42.684;23.252;2023-05-08T03:35:42;94554.81;;;11.04;85.50
11339;BME280;5724;42.684;23.252;2023-05-08T03:38:09;94565.28;;;11.17;85.77
11339;BME280;5724;42.684;23.252;2023-05-08T03:40:36;94560.97;;;11.16;86.04
11339;BME280;5724;42.684;23.252;2023-05-08T03:43:05;94563.63;;;11.13;86.27
11339;BME280;5724;42.684;23.252;2023-05-08T03:45:34;94556.56;;;11.12;86.11
11339;BME280;5724;42.684;23.252;2023-05-08T03:48:00;94556.72;;;11.19;85.62
11339;BME280;5724;42.684;23.252;2023-05-08T03:50:26;94558.38;;;11.24;85.61
11339;BME280;5724;42.684;23.252;2023-05-08T03:52:53;94560.22;;;11.00;85.03
11339;BME280;5724;42.684;23.252;2023-05-08T03:55:18;94563.19;;;11.11;85.46
11339;BME280;5724;42.684;23.252;2023-05-08T03:58:07;94570.34;;;11.00;85.53
11339;BME280;5724;42.684;23.252;2023-05-08T04:00:46;94566.78;;;11.15;85.03
11339;BME280;5724;42.684;23.252;2023-05-08T04:03:36;94570.28;;;11.31;84.56
11339;BME280;5724;42.684;23.252;2023-05-08T04:06:06;94579.50;;;11.42;83.81
11339;BME280;5724;42.684;23.252;2023-05-08T04:08:41;94582.97;;;11.39;83.13
11339;BME280;5724;42.684;23.252;2023-05-08T04:11:14;94586.00;;;11.54;83.06
11339;BME280;5724;42.684;23.252;2023-05-08T04:13:46;94580.69;;;11.61;82.73
11339;BME280;5724;42.684;23.252;2023-05-08T04:16:19;94578.97;;;11.72;81.64
11339;BME280;5724;42.684;23.252;2023-05-08T04:18:46;94584.44;;;11.72;81.45
11339;BME280;5724;42.684;23.252;2023-05-08T04:21:18;94580.59;;;11.76;80.79
11339;BME280;5724;42.684;23.252;2023-05-08T04:23:46;94584.50;;;11.75;80.52
11339;BME280;5724;42.684;23.252;2023-05-08T04:26:13;94592.47;;;11.81;80.36
11339;BME280;5724;42.684;23.252;2023-05-08T04:28:40;94583.69;;;11.75;81.91
11339;BME280;5724;42.684;23.252;2023-05-08T04:31:07;94589.00;;;11.84;81.67
11339;BME280;5724;42.684;23.252;2023-05-08T04:33:34;94587.84;;;11.85;82.39
11339;BME280;5724;42.684;23.252;2023-05-08T04:36:02;94583.69;;;11.75;82.61
11339;BME280;5724;42.684;23.252;2023-05-08T04:38:28;94593.81;;;11.90;81.92
11339;BME280;5724;42.684;23.252;2023-05-08T04:40:54;94592.28;;;12.12;81.62
11339;BME280;5724;42.684;23.252;2023-05-08T04:43:20;94586.81;;;12.12;82.24
11339;BME280;5724;42.684;23.252;2023-05-08T04:45:45;94571.75;;;12.02;82.96
11339;BME280;5724;42.684;23.252;2023-05-08T04:48:11;94567.47;;;12.24;82.33
11339;BME280;5724;42.684;23.252;2023-05-08T04:50:36;94574.00;;;12.39;82.31
11339;BME280;5724;42.684;23.252;2023-05-08T04:53:02;94574.00;;;12.39;81.72
11339;BME280;5724;42.684;23.252;2023-05-08T04:55:27;94560.31;;;12.39;80.88
11339;BME280;5724;42.684;23.252;2023-05-08T04:57:53;94570.09;;;12.40;79.53
11339;BME280;5724;42.684;23.252;2023-05-08T05:00:18;94569.19;;;12.32;79.24
11339;BME280;5724;42.684;23.252;2023-05-08T05:02:44;94570.91;;;12.41;79.29
11339;BME280;5724;42.684;23.252;2023-05-08T05:05:09;94566.72;;;12.47;79.18
11339;BME280;5724;42.684;23.252;2023-05-08T05:07:35;94567.81;;;12.65;78.79
11339;BME280;5724;42.684;23.252;2023-05-08T05:10:00;94556.97;;;12.49;77.82
11339;BME280;5724;42.684;23.252;2023-05-08T05:12:26;94560.66;;;12.60;77.85
11339;BME280;5724;42.684;23.252;2023-05-08T05:14:51;94558.91;;;12.72;78.22
11339;BME280;5724;42.684;23.252;2023-05-08T05:17:17;94555.53;;;12.82;77.35
11339;BME280;5724;42.684;23.252;2023-05-08T05:19:42;94560.84;;;12.94;77.38
11339;BME280;5724;42.684;23.252;2023-05-08T05:22:08;94559.34;;;13.00;77.08
11339;BME280;5724;42.684;23.252;2023-05-08T05:24:33;94558.63;;;13.03;77.47
11339;BME280;5724;42.684;23.252;2023-05-08T05:27:03;94560.84;;;12.94;76.92
11339;BME280;5724;42.684;23.252;2023-05-08T05:29:29;94552.16;;;12.92;76.84
11339;BME280;5724;42.684;23.252;2023-05-08T05:31:55;94570.44;;;13.07;76.98
11339;BME280;5724;42.684;23.252;2023-05-08T05:34:20;94559.41;;;13.30;76.43
11339;BME280;5724;42.684;23.252;2023-05-08T05:36:45;94559.16;;;13.39;75.08
11339;BME280;5724;42.684;23.252;2023-05-08T05:39:11;94564.47;;;13.55;75.14
11339;BME280;5724;42.684;23.252;2023-05-08T05:41:37;94563.91;;;13.72;74.54
11339;BME280;5724;42.684;23.252;2023-05-08T05:44:02;94559.63;;;13.74;73.74
11339;BME280;5724;42.684;23.252;2023-05-08T05:46:28;94569.03;;;14.07;73.30
11339;BME280;5724;42.684;23.252;2023-05-08T05:48:59;94566.38;;;14.14;73.19
11339;BME280;5724;42.684;23.252;2023-05-08T05:51:25;94568.13;;;14.29;70.39
11339;BME280;5724;42.684;23.252;2023-05-08T05:53:52;94571.06;;;14.14;69.78
11339;BME280;5724;42.684;23.252;2023-05-08T05:56:17;94569.53;;;14.16;69.67
11339;BME280;5724;42.684;23.252;2023-05-08T05:58:43;94560.72;;;14.37;69.29
11339;BME280;5724;42.684;23.252;2023-05-08T06:01:10;94557.69;;;14.46;69.23
11339;BME280;5724;42.684;23.252;2023-05-08T06:03:36;94556.25;;;14.59;68.98
11339;BME280;5724;42.684;23.252;2023-05-08T06:06:02;94550.38;;;14.60;69.53
11339;BME280;5724;42.684;23.252;2023-05-08T06:08:28;94551.72;;;14.77;68.66
11339;BME280;5724;42.684;23.252;2023-05-08T06:10:53;94552.91;;;14.83;67.94
11339;BME280;5724;42.684;23.252;2023-05-08T06:13:19;94551.03;;;14.95;67.35
11339;BME280;5724;42.684;23.252;2023-05-08T06:15:44;94555.44;;;15.03;67.17
11339;BME280;5724;42.684;23.252;2023-05-08T06:18:10;94547.63;;;15.08;68.46
11339;BME280;5724;42.684;23.252;2023-05-08T06:20:37;94545.97;;;14.97;68.87
11339;BME280;5724;42.684;23.252;2023-05-08T06:23:03;94550.16;;;14.83;70.33
11339;BME280;5724;42.684;23.252;2023-05-08T06:25:28;94549.13;;;14.99;69.37
11339;BME280;5724;42.684;23.252;2023-05-08T06:27:55;94547.56;;;15.01;69.45
11339;BME280;5724;42.684;23.252;2023-05-08T06:30:21;94547.25;;;15.10;69.54
11339;BME280;5724;42.684;23.252;2023-05-08T06:32:46;94552.78;;;15.17;69.06
11339;BME280;5724;42.684;23.252;2023-05-08T06:35:12;94562.69;;;15.29;67.78
11339;BME280;5724;42.684;23.252;2023-05-08T06:37:39;94562.47;;;14.97;67.88
11339;BME280;5724;42.684;23.252;2023-05-08T06:40:05;94557.41;;;15.02;68.48
11339;BME280;5724;42.684;23.252;2023-05-08T06:42:31;94559.88;;;15.18;67.70
11339;BME280;5724;42.684;23.252;2023-05-08T06:44:56;94561.72;;;15.00;67.48
11339;BME280;5724;42.684;23.252;2023-05-08T06:47:22;94557.91;;;15.18;67.64
11339;BME280;5724;42.684;23.252;2023-05-08T06:49:47;94548.25;;;15.46;66.92
11339;BME280;5724;42.684;23.252;2023-05-08T06:52:13;94545.34;;;15.21;67.50
11339;BME280;5724;42.684;23.252;2023-05-08T06:54:38;94559.75;;;14.56;69.67
11339;BME280;5724;42.684;23.252;2023-05-08T06:57:05;94552.03;;;14.69;70.48
11339;BME280;5724;42.684;23.252;2023-05-08T06:59:30;94555.34;;;14.92;69.38
11339;BME280;5724;42.684;23.252;2023-05-08T07:01:56;94565.78;;;15.20;69.20
11339;BME280;5724;42.684;23.252;2023-05-08T07:04:21;94573.47;;;15.52;68.31
11339;BME280;5724;42.684;23.252;2023-05-08T07:06:47;94575.94;;;15.64;67.26
11339;BME280;5724;42.684;23.252;2023-05-08T07:09:12;94568.81;;;15.63;66.82
11339;BME280;5724;42.684;23.252;2023-05-08T07:11:37;94574.38;;;15.70;66.83
11339;BME280;5724;42.684;23.252;2023-05-08T07:14:03;94565.97;;;15.49;67.86
11339;BME280;5724;42.684;23.252;2023-05-08T07:16:28;94569.91;;;15.48;67.99
11339;BME280;5724;42.684;23.252;2023-05-08T07:18:54;94567.81;;;15.27;68.61
11339;BME280;5724;42.684;23.252;2023-05-08T07:21:19;94555.56;;;15.24;69.10
11339;BME280;5724;42.684;23.252;2023-05-08T07:23:45;94563.75;;;15.10;67.98
11339;BME280;5724;42.684;23.252;2023-05-08T07:26:12;94569.78;;;15.26;67.93
11339;BME280;5724;42.684;23.252;2023-05-08T07:28:37;94563.22;;;15.49;68.18
11339;BME280;5724;42.684;23.252;2023-05-08T07:31:04;94563.69;;;15.61;67.51
11339;BME280;5724;42.684;23.252;2023-05-08T07:33:31;94566.75;;;15.49;68.41
11339;BME280;5724;42.684;23.252;2023-05-08T07:35:58;94572.06;;;15.76;66.61
11339;BME280;5724;42.684;23.252;2023-05-08T07:38:24;94571.72;;;15.84;65.85
11339;BME280;5724;42.684;23.252;2023-05-08T07:40:51;94571.34;;;15.93;65.78
11339;BME280;5724;42.684;23.252;2023-05-08T07:43:22;94558.41;;;16.08;65.51
11339;BME280;5724;42.684;23.252;2023-05-08T07:45:48;94573.38;;;16.07;64.99
11339;BME280;5724;42.684;23.252;2023-05-08T07:48:13;94575.44;;;16.38;64.12
11339;BME280;5724;42.684;23.252;2023-05-08T07:50:38;94568.69;;;16.18;61.84
11339;BME280;5724;42.684;23.252;2023-05-08T07:53:04;94580.56;;;16.33;61.23
11339;BME280;5724;42.684;23.252;2023-05-08T07:55:30;94593.03;;;16.01;62.72
11339;BME280;5724;42.684;23.252;2023-05-08T07:57:56;94576.91;;;16.11;63.80
11339;BME280;5724;42.684;23.252;2023-05-08T08:00:23;94589.22;;;16.35;63.55
11339;BME280;5724;42.684;23.252;2023-05-08T08:02:51;94572.69;;;16.45;63.71
11339;BME280;5724;42.684;23.252;2023-05-08T08:05:17;94587.72;;;16.66;63.41
11339;BME280;5724;42.684;23.252;2023-05-08T08:07:42;94587.66;;;16.37;64.40
11339;BME280;5724;42.684;23.252;2023-05-08T08:10:08;94575.72;;;16.08;65.57
11339;BME280;5724;42.684;23.252;2023-05-08T08:12:34;94570.72;;;16.35;64.89
11339;BME280;5724;42.684;23.252;2023-05-08T08:14:59;94570.03;;;17.02;63.70
11339;BME280;5724;42.684;23.252;2023-05-08T08:17:24;94578.31;;;17.41;64.13
11339;BME280;5724;42.684;23.252;2023-05-08T08:19:50;94577.88;;;17.68;63.81
11339;BME280;5724;42.684;23.252;2023-05-08T08:22:15;94577.09;;;17.60;63.09
11339;BME280;5724;42.684;23.252;2023-05-08T08:24:41;94569.94;;;17.88;62.37
11339;BME280;5724;42.684;23.252;2023-05-08T08:27:06;94568.81;;;17.71;63.21
11339;BME280;5724;42.684;23.252;2023-05-08T08:29:32;94568.31;;;18.01;62.89
11339;BME280;5724;42.684;23.252;2023-05-08T08:31:58;94555.75;;;17.79;62.26
11339;BME280;5724;42.684;23.252;2023-05-08T08:34:24;94560.91;;;17.69;63.26
11339;BME280;5724;42.684;23.252;2023-05-08T08:36:50;94553.38;;;17.81;63.18
11339;BME280;5724;42.684;23.252;2023-05-08T08:39:15;94545.09;;;17.81;63.21
11339;BME280;5724;42.684;23.252;2023-05-08T08:41:41;94546.28;;;17.80;63.46
11339;BME280;5724;42.684;23.252;2023-05-08T08:44:06;94543.13;;;17.78;63.08
11339;BME280;5724;42.684;23.252;2023-05-08T08:46:32;94536.34;;;17.93;62.54
11339;BME280;5724;42.684;23.252;2023-05-08T08:48:58;94538.84;;;17.48;64.16
11339;BME280;5724;42.684;23.252;2023-05-08T08:51:30;94536.44;;;17.57;64.01
11339;BME280;5724;42.684;23.252;2023-05-08T08:54:06;94530.09;;;17.74;64.39
11339;BME280;5724;42.684;23.252;2023-05-08T08:56:35;94531.19;;;18.02;63.60
11339;BME280;5724;42.684;23.252;2023-05-08T08:59:03;94518.50;;;18.05;62.48
11339;BME280;5724;42.684;23.252;2023-05-08T09:01:33;94513.47;;;17.89;63.11
11339;BME280;5724;42.684;23.252;2023-05-08T09:04:00;94517.06;;;17.86;63.87
11339;BME280;5724;42.684;23.252;2023-05-08T09:06:26;94520.59;;;17.83;64.11
11339;BME280;5724;42.684;23.252;2023-05-08T09:08:56;94514.31;;;17.64;64.87
11339;BME280;5724;42.684;23.252;2023-05-08T09:11:26;94507.97;;;17.82;64.78
11339;BME280;5724;42.684;23.252;2023-05-08T09:13:53;94500.03;;;17.91;64.76
11339;BME280;5724;42.684;23.252;2023-05-08T09:16:19;94489.66;;;18.16;64.18
11339;BME280;5724;42.684;23.252;2023-05-08T09:18:45;94478.78;;;18.47;63.42
11339;BME280;5724;42.684;23.252;2023-05-08T09:21:11;94473.03;;;18.79;62.05
11339;BME280;5724;42.684;23.252;2023-05-08T09:24:03;94460.66;;;18.94;61.36
11339;BME280;5724;42.684;23.252;2023-05-08T09:26:29;94478.09;;;18.87;59.95
11339;BME280;5724;42.684;23.252;2023-05-08T09:31:35;94495.50;;;18.88;62.03
11339;BME280;5724;42.684;23.252;2023-05-08T09:34:01;94496.44;;;18.67;62.58
11339;BME280;5724;42.684;23.252;2023-05-08T09:36:26;94510.66;;;18.69;63.29
11339;BME280;5724;42.684;23.252;2023-05-08T09:38:53;94503.66;;;18.54;63.10
11339;BME280;5724;42.684;23.252;2023-05-08T09:41:18;94511.72;;;18.23;63.70
11339;BME280;5724;42.684;23.252;2023-05-08T09:44:01;94506.00;;;17.86;64.47
11339;BME280;5724;42.684;23.252;2023-05-08T09:46:27;94499.19;;;18.01;65.27
11339;BME280;5724;42.684;23.252;2023-05-08T09:48:55;94508.16;;;18.26;64.43
11339;BME280;5724;42.684;23.252;2023-05-08T09:51:21;94506.22;;;18.20;63.55
11339;BME280;5724;42.684;23.252;2023-05-08T09:53:49;94510.53;;;18.24;63.13
11339;BME280;5724;42.684;23.252;2023-05-08T09:56:28;94507.72;;;18.31;63.86
11339;BME280;5724;42.684;23.252;2023-05-08T09:58:54;94501.75;;;18.40;63.01
11339;BME280;5724;42.684;23.252;2023-05-08T10:03:54;94510.78;;;18.48;63.80
11339;BME280;5724;42.684;23.252;2023-05-08T10:06:20;94496.94;;;18.48;63.33
11339;BME280;5724;42.684;23.252;2023-05-08T10:08:45;94499.69;;;18.55;62.77
11339;BME280;5724;42.684;23.252;2023-05-08T10:11:16;94495.03;;;18.38;63.79
11339;BME280;5724;42.684;23.252;2023-05-08T10:13:46;94496.53;;;18.49;63.76
11339;BME280;5724;42.684;23.252;2023-05-08T10:16:16;94485.56;;;18.39;64.42
11339;BME280;5724;42.684;23.252;2023-05-08T10:18:46;94488.91;;;18.71;64.09
11339;BME280;5724;42.684;23.252;2023-05-08T10:21:13;94483.69;;;18.84;63.44
11339;BME280;5724;42.684;23.252;2023-05-08T10:23:41;94475.88;;;18.68;62.89
11339;BME280;5724;42.684;23.252;2023-05-08T10:26:15;94485.78;;;18.62;63.27
11339;BME280;5724;42.684;23.252;2023-05-08T10:28:49;94468.66;;;18.81;63.14
11339;BME280;5724;42.684;23.252;2023-05-08T10:31:20;94478.59;;;18.75;63.23
11339;BME280;5724;42.684;23.252;2023-05-08T10:33:49;94471.81;;;18.83;63.84
11339;BME280;5724;42.684;23.252;2023-05-08T10:36:16;94478.34;;;19.04;62.83
11339;BME280;5724;42.684;23.252;2023-05-08T10:38:42;94478.31;;;19.11;63.03
11339;BME280;5724;42.684;23.252;2023-05-08T10:41:09;94475.22;;;19.02;62.78
11339;BME280;5724;42.684;23.252;2023-05-08T10:43:35;94474.41;;;19.42;61.28
11339;BME280;5724;42.684;23.252;2023-05-08T10:46:17;94469.03;;;19.66;61.92
11339;BME280;5724;42.684;23.252;2023-05-08T10:49:21;94468.34;;;19.55;61.09
11339;BME280;5724;42.684;23.252;2023-05-08T10:57:11;94454.53;;;19.51;62.35
11339;BME280;5724;42.684;23.252;2023-05-08T10:59:37;94454.91;;;19.53;61.89
11339;BME280;5724;42.684;23.252;2023-05-08T11:02:03;94457.25;;;19.55;61.86
11339;BME280;5724;42.684;23.252;2023-05-08T11:04:30;94454.44;;;19.92;61.04
11339;BME280;5724;42.684;23.252;2023-05-08T11:06:55;94447.13;;;20.06;59.50
11339;BME280;5724;42.684;23.252;2023-05-08T11:09:28;94446.00;;;20.30;58.30
11339;BME280;5724;42.684;23.252;2023-05-08T11:12:27;94428.41;;;20.13;57.67
11339;BME280;5724;42.684;23.252;2023-05-08T11:15:02;94406.91;;;20.21;57.28
11339;BME280;5724;42.684;23.252;2023-05-08T11:17:30;94432.56;;;20.55;56.32
11339;BME280;5724;42.684;23.252;2023-05-08T11:20:01;94415.84;;;20.05;56.58
11339;BME280;5724;42.684;23.252;2023-05-08T11:22:34;94430.56;;;20.29;55.26
11339;BME280;5724;42.684;23.252;2023-05-08T11:25:03;94427.06;;;19.94;55.80
11339;BME280;5724;42.684;23.252;2023-05-08T11:35:46;94401.25;;;21.22;52.27
11339;BME280;5724;42.684;23.252;2023-05-08T11:46:04;94384.97;;;21.24;51.53
11339;BME280;5724;42.684;23.252;2023-05-08T11:48:31;94372.97;;;21.07;52.16
11339;BME280;5724;42.684;23.252;2023-05-08T11:50:58;94377.53;;;21.17;52.76
11339;BME280;5724;42.684;23.252;2023-05-08T11:53:24;94370.31;;;21.63;52.61
11339;BME280;5724;42.684;23.252;2023-05-08T11:55:53;94367.06;;;21.84;51.36
11339;BME280;5724;42.684;23.252;2023-05-08T11:58:20;94368.94;;;21.91;49.60
11339;BME280;5724;42.684;23.252;2023-05-08T12:00:47;94360.16;;;21.92;49.92
11339;BME280;5724;42.684;23.252;2023-05-08T12:05:39;94357.34;;;22.45;49.67
11339;BME280;5724;42.684;23.252;2023-05-08T12:08:08;94357.53;;;22.21;47.74
11339;BME280;5724;42.684;23.252;2023-05-08T12:10:50;94367.19;;;21.97;48.63
11339;BME280;5724;42.684;23.252;2023-05-08T12:13:21;94363.81;;;22.06;47.90
11339;BME280;5724;42.684;23.252;2023-05-08T12:15:48;94360.88;;;21.77;49.25
11339;BME280;5724;42.684;23.252;2023-05-08T12:18:15;94358.34;;;21.46;49.06
11339;BME280;5724;42.684;23.252;2023-05-08T12:20:41;94368.06;;;20.71;50.73
11339;BME280;5724;42.684;23.252;2023-05-08T12:23:07;94369.53;;;20.99;51.00
11339;BME280;5724;42.684;23.252;2023-05-08T12:25:36;94365.94;;;20.55;51.64
11339;BME280;5724;42.684;23.252;2023-05-08T12:28:02;94365.72;;;20.19;51.23
11339;BME280;5724;42.684;23.252;2023-05-08T12:30:27;94351.66;;;20.30;51.96
11339;BME280;5724;42.684;23.252;2023-05-08T12:32:53;94355.94;;;20.62;52.20
11339;BME280;5724;42.684;23.252;2023-05-08T12:35:19;94351.91;;;20.66;52.47
11339;BME280;5724;42.684;23.252;2023-05-08T12:37:45;94350.69;;;20.67;52.76
11339;BME280;5724;42.684;23.252;2023-05-08T12:40:24;94355.16;;;20.84;51.37
11339;BME280;5724;42.684;23.252;2023-05-08T12:42:50;94357.16;;;21.04;50.96
11339;BME280;5724;42.684;23.252;2023-05-08T12:45:27;94348.84;;;21.24;51.14
11339;BME280;5724;42.684;23.252;2023-05-08T12:47:57;94344.66;;;21.35;50.02
11339;BME280;5724;42.684;23.252;2023-05-08T12:50:22;94341.19;;;21.08;50.47
11339;BME280;5724;42.684;23.252;2023-05-08T12:52:51;94347.13;;;21.10;50.77
11339;BME280;5724;42.684;23.252;2023-05-08T12:55:23;94347.09;;;20.90;51.95
11339;BME280;5724;42.684;23.252;2023-05-08T12:57:57;94351.09;;;21.09;52.52
11339;BME280;5724;42.684;23.252;2023-05-08T13:00:22;94342.63;;;21.16;50.86
11339;BME280;5724;42.684;23.252;2023-05-08T13:02:54;94345.25;;;21.03;49.98
11339;BME280;5724;42.684;23.252;2023-05-08T13:05:21;94338.28;;;20.95;49.85
11339;BME280;5724;42.684;23.252;2023-05-08T13:07:50;94326.63;;;21.24;51.13
11339;BME280;5724;42.684;23.252;2023-05-08T13:10:16;94338.09;;;21.26;50.12
11339;BME280;5724;42.684;23.252;2023-05-08T13:12:44;94341.66;;;20.83;49.95
11339;BME280;5724;42.684;23.252;2023-05-08T13:15:10;94341.16;;;20.68;51.49
11339;BME280;5724;42.684;23.252;2023-05-08T13:17:36;94338.06;;;20.63;52.77
11339;BME280;5724;42.684;23.252;2023-05-08T13:20:01;94345.28;;;20.33;53.99
11339;BME280;5724;42.684;23.252;2023-05-08T13:22:29;94341.63;;;19.86;54.59
11339;BME280;5724;42.684;23.252;2023-05-08T13:24:54;94345.56;;;19.88;55.90
11339;BME280;5724;42.684;23.252;2023-05-08T13:27:20;94357.47;;;19.24;60.09
11339;BME280;5724;42.684;23.252;2023-05-08T13:29:45;94372.66;;;19.09;61.88
11339;BME280;5724;42.684;23.252;2023-05-08T13:32:10;94377.81;;;18.69;63.91
11339;BME280;5724;42.684;23.252;2023-05-08T13:34:36;94374.03;;;18.49;64.96
11339;BME280;5724;42.684;23.252;2023-05-08T13:37:01;94374.94;;;18.31;65.94
11339;BME280;5724;42.684;23.252;2023-05-08T13:39:27;94368.09;;;17.95;67.23
11339;BME280;5724;42.684;23.252;2023-05-08T13:41:52;94384.41;;;17.79;68.14
11339;BME280;5724;42.684;23.252;2023-05-08T13:44:18;94386.72;;;17.87;68.04
11339;BME280;5724;42.684;23.252;2023-05-08T13:46:43;94383.25;;;17.76;68.64
11339;BME280;5724;42.684;23.252;2023-05-08T13:49:09;94399.41;;;17.74;68.79
11339;BME280;5724;42.684;23.252;2023-05-08T13:51:34;94397.84;;;17.73;68.75
11339;BME280;5724;42.684;23.252;2023-05-08T13:54:00;94402.66;;;17.55;69.66
11339;BME280;5724;42.684;23.252;2023-05-08T13:56:25;94412.59;;;17.38;70.54